Flight Track Log - Related Links

Times and Time Zones

All times are in EDT time to prevent confusion due to time zone crossing. See the DAL268 flight status page for this flight to view local times or setup timezone preferences in your user account.

Time Position Orientation Groundspeed Altitude Reporting Facility
EDT Latitude Longitude Course Direction KTS km/h feet Rate Location/Type
Sun 14:22:06 37.6160 -122.3820 North 9 16  Level FlightAware ADS-B
Sun 14:22:29 37.6160 -122.3810 90° East 9 16 41 Level FlightAware ADS-B
Sun 14:25:00 37.8481 -122.1352 38° Northeast  Level FlightAware Approximate
Sun 14:26:00 37.9437 -122.0396 38° Northeast  Level FlightAware Approximate
Sun 14:27:00 38.0313 -121.9414 35° Northeast  Level FlightAware Approximate
Sun 14:27:32 37.6110 -122.3830 35° Northeast 18 34  Level FlightAware ADS-B
Sun 14:28:31 37.6100 -122.3840 218° Southwest 22 40 56 Level FlightAware ADS-B
Sun 14:30:39 37.6070 -122.3840 180° South 61 Level FlightAware ADS-B
Sun 14:32:40 37.6060 -122.3830 142° Southeast 11 21 72 Level FlightAware ADS-B
Sun 14:35:00 37.8293 -122.1540 38° Northeast  Level FlightAware Approximate
Sun 14:36:00 37.9249 -122.0585 38° Northeast  Level FlightAware Approximate
Sun 14:37:00 38.0115 -121.9587 35° Northeast  Level FlightAware Approximate
Sun 14:38:00 38.1118 -121.8709 35° Northeast  Level FlightAware Approximate
Sun 14:39:00 38.2077 -121.7756 38° Northeast  Level FlightAware Approximate
Sun 14:41:07 37.6090 -122.3790 38° Northeast 74 137  Level FlightAware ADS-B
Sun 14:41:22 37.6150 -122.3750 28° Northeast 135 249 1.297 Level FlightAware ADS-B
Sun 14:41:44 37.6312 -122.3640 28° Northeast 162 299 800 2.167 Climbing FlightAware ADS-B
Sun 14:41:58 37.6399 -122.3560 36° Northeast 173 320 1.300 2.000 Climbing FlightAware ADS-B
Sun 14:42:08 37.6454 -122.3490 45° Northeast 185 343 1.600 1.364 Climbing FlightAware ADS-B
Sun 14:42:20 37.6528 -122.3390 47° Northeast 209 388 1.800 750 Climbing FlightAware ADS-B
Sun 14:42:32 37.6620 -122.3270 46° Northeast 233 431 1.900 1.286 Climbing FlightAware ADS-B
Sun 14:42:48 37.6746 -122.3120 43° Northeast 250 463 2.400 2.364 Climbing FlightAware ADS-B
Sun 14:43:05 37.6891 -122.2940 44° Northeast 252 467 3.200 2.647 Climbing FlightAware ADS-B
Sun 14:43:22 37.7033 -122.2770 43° Northeast 260 481 3.900 2.364 Climbing FlightAware ADS-B
Sun 14:43:38 37.7175 -122.2600 43° Northeast 263 488 4.500 2.550 Climbing FlightAware ADS-B
Sun 14:44:02 37.7393 -122.2340 43° Northeast 272 504 5.600 2.791 Climbing FlightAware ADS-B
Sun 14:44:21 37.7581 -122.2150 39° Northeast 272 504 6.500 2.870 Climbing FlightAware ADS-B
Sun 14:44:25 37.7625 -122.2110 36° Northeast 274 507 6.700 2.200 Climbing FlightAware ADS-B
Sun 14:44:51 37.7894 -122.1860 36° Northeast 282 523 7.600 2.118 Climbing FlightAware ADS-B
Sun 14:44:59 37.7979 -122.1780 37° Northeast 284 526 7.900 2.348 Climbing FlightAware ADS-B
Sun 14:45:14 37.8136 -122.1630 37° Northeast 287 531 8.500 2.600 Climbing FlightAware ADS-B
Sun 14:45:29 37.8300 -122.1470 38° Northeast 288 533 9.200 2.400 Climbing FlightAware ADS-B
Sun 14:45:44 37.8462 -122.1320 36° Northeast 292 541 9.700 2.000 Climbing FlightAware ADS-B
Sun 14:46:14 37.8790 -122.1000 38° Northeast 303 562 10.700 1.700 Climbing FlightAware ADS-B
Sun 14:46:44 37.9139 -122.0660 38° Northeast 328 607 11.400 1.313 Climbing FlightAware ADS-B
Sun 14:47:18 37.9560 -122.0260 37° Northeast 352 652 12.100 1.462 Climbing FlightAware ADS-B
Sun 14:48:02 38.0153 -121.9690 37° Northeast 368 681 13.300 1.636 Climbing FlightAware ADS-B
Sun 14:48:35 38.0611 -121.9250 37° Northeast 377 698 14.200 1.615 Climbing FlightAware ADS-B
Sun 14:49:20 38.1250 -121.8620 38° Northeast 405 750 15.400 1.870 Climbing FlightAware ADS-B
Sun 14:49:52 38.1750 -121.8130 38° Northeast 412 763 16.600 2.289 Climbing FlightAware ADS-B
Sun 14:50:36 38.2410 -121.7500 37° Northeast 408 756 18.300 1.973 Climbing FlightAware ADS-B
Sun 14:51:05 38.2780 -121.7010 46° Northeast 414 766 19.000 1.167 Climbing FlightAware ADS-B
Sun 14:51:48 38.3210 -121.6110 59° Northeast 416 771 19.700 1.446 Climbing FlightAware ADS-B
Sun 14:52:28 38.3650 -121.5270 56° Northeast 421 779 21.000 1.895 Climbing FlightAware ADS-B
Sun 14:53:04 38.4030 -121.4510 57° Northeast 425 787 22.100 1.818 Climbing FlightAware ADS-B
Sun 14:53:34 38.4340 -121.3870 58° Northeast 425 787 23.000 1.683 Climbing FlightAware ADS-B
Sun 14:54:26 38.4860 -121.2790 58° Northeast 429 795 24.400 1.423 Climbing FlightAware ADS-B
Sun 14:55:11 38.5330 -121.1790 59° Northeast 444 822 25.300 1.186 Climbing FlightAware ADS-B
Sun 14:55:52 38.5770 -121.0840 59° Northeast 455 843 26.100 1.185 Climbing FlightAware ADS-B
Sun 14:56:32 38.6200 -120.9920 59° Northeast 462 856 26.900 1.125 Climbing FlightAware ADS-B
Sun 14:57:12 38.6650 -120.8960 59° Northeast 473 875 27.600 947 Climbing FlightAware ADS-B
Sun 14:57:48 38.7050 -120.8100 59° Northeast 481 892 28.100 900 Climbing FlightAware ADS-B
Sun 14:58:32 38.7560 -120.7000 59° Northeast 490 908 28.800 1.000 Climbing FlightAware ADS-B
Sun 14:59:12 38.8010 -120.6030 59° Northeast 496 919 29.500 1.286 Climbing FlightAware ADS-B
Sun 14:59:56 38.8540 -120.4890 59° Northeast 494 914 30.600 1.400 Climbing FlightAware ADS-B
Sun 15:00:42 38.9060 -120.3770 59° Northeast 495 917 31.600 1.341 Climbing FlightAware ADS-B
Sun 15:01:21 38.9520 -120.2740 60° Northeast 493 912 32.500 1.139 Climbing FlightAware ADS-B
Sun 15:02:01 38.9990 -120.1720 59° Northeast 497 921 33.100 923 Climbing FlightAware ADS-B
Sun 15:02:39 39.0400 -120.0820 60° Northeast 498 922 33.700 1.151 Climbing FlightAware ADS-B
Sun 15:03:14 39.0830 -119.9880 59° Northeast 498 922 34.500 1.184 Climbing FlightAware ADS-B
Sun 15:03:55 39.1310 -119.8820 60° Northeast 498 922 35.200 1.014 Climbing FlightAware ADS-B
Sun 15:04:25 39.1660 -119.8040 60° Northeast 498 922 35.700 1.029 Climbing FlightAware ADS-B
Sun 15:05:05 39.2120 -119.7020 60° Northeast 497 921 36.400 900 Climbing FlightAware ADS-B
Sun 15:05:45 39.2570 -119.6000 60° Northeast 498 922 36.900 424 Climbing FlightAware ADS-B
Sun 15:06:30 39.3090 -119.4850 60° Northeast 498 922 37.000 73 Climbing FlightAware ADS-B
Sun 15:07:07 39.3510 -119.3890 60° Northeast 496 919 37.000  Level FlightAware ADS-B
Sun 15:07:51 39.4020 -119.2750 60° Northeast 498 922 37.000  Level FlightAware ADS-B
Sun 15:08:33 39.4450 -119.1650 63° Northeast 500 925 37.000  Level FlightAware ADS-B
Sun 15:09:13 39.4850 -119.0550 65° Northeast 499 924 37.000  Level FlightAware ADS-B
Sun 15:09:49 39.5210 -118.9590 64° Northeast 499 924 37.000  Level FlightAware ADS-B
Sun 15:10:45 39.5770 -118.8100 64° Northeast 498 922 37.000  Level FlightAware ADS-B
Sun 15:11:43 39.6360 -118.6540 64° Northeast 498 922 37.000  Level FlightAware ADS-B
Sun 15:12:27 39.6800 -118.5380 64° Northeast 497 921 37.000  Level FlightAware ADS-B
Sun 15:13:08 39.7220 -118.4250 64° Northeast 498 922 37.000  Level FlightAware ADS-B
Sun 15:13:52 39.7650 -118.3090 64° Northeast 499 924 37.000  Level FlightAware ADS-B
Sun 15:14:30 39.8030 -118.2030 65° Northeast 500 925 37.000  Level FlightAware ADS-B
Sun 15:15:12 39.8440 -118.0890 65° Northeast 501 929 37.000  Level FlightAware ADS-B
Sun 15:15:56 39.8870 -117.9710 65° Northeast 501 929 37.000  Level FlightAware ADS-B
Sun 15:16:55 39.9440 -117.8110 65° Northeast 503 932 37.000  Level FlightAware ADS-B
Sun 15:17:34 39.9830 -117.7020 65° Northeast 504 933 37.000  Level FlightAware ADS-B
Sun 15:18:04 40.0110 -117.6220 65° Northeast 505 935 37.000  Level FlightAware ADS-B
Sun 15:18:51 40.0530 -117.5040 65° Northeast 506 937 37.000  Level FlightAware ADS-B
Sun 15:19:15 40.0730 -117.4480 65° Northeast 506 937 37.000  Level FlightAware ADS-B
Sun 15:20:03 40.1140 -117.3350 65° Northeast 506 937 37.000  Level FlightAware ADS-B
Sun 15:20:37 40.1420 -117.2550 65° Northeast 506 937 37.000  Level FlightAware ADS-B
Sun 15:21:13 40.1730 -117.1700 64° Northeast 506 937 37.000  Level FlightAware ADS-B
Sun 15:21:49 40.2030 -117.0850 65° Northeast 506 937 37.000  Level FlightAware ADS-B
Sun 15:22:37 40.2430 -116.9710 65° Northeast 506 937 37.000  Level FlightAware ADS-B
Sun 15:23:13 40.2730 -116.8860 65° Northeast 506 937 37.000  Level FlightAware ADS-B
Sun 15:23:51 40.3050 -116.7960 65° Northeast 506 937 37.000  Level FlightAware ADS-B
Sun 15:24:38 40.3450 -116.6850 65° Northeast 506 937 37.000  Level FlightAware ADS-B
Sun 15:25:13 40.3740 -116.6020 65° Northeast 506 937 37.000  Level FlightAware ADS-B
Sun 15:25:50 40.4050 -116.5150 65° Northeast 506 937 37.000  Level FlightAware ADS-B
Sun 15:26:27 40.4370 -116.4270 64° Northeast 506 937 37.000  Level FlightAware ADS-B
Sun 15:26:51 40.5225 -116.1450 68° East 508 941 37.000  Level FlightAware ADS-B
Sun 15:27:23 40.5526 -116.0560 66° East 508 941 37.000  Level FlightAware ADS-B
Sun 15:27:53 40.5813 -115.9700 66° East 508 941 37.000  Level FlightAware ADS-B
Sun 15:28:27 40.6132 -115.8750 66° East 508 941 37.000  Level FlightAware ADS-B
Sun 15:31:42 40.7968 -115.3200 66° East 513 950 37.000  Level FlightAware ADS-B
Sun 15:32:13 40.8255 -115.2320 67° East 514 953 37.000  Level FlightAware ADS-B
Sun 15:32:45 40.8550 -115.1410 67° East 513 950 37.000  Level FlightAware ADS-B
Sun 15:33:25 40.8930 -115.0240 67° East 514 953 37.000  Level FlightAware ADS-B
Sun 15:33:56 40.9214 -114.9360 67° East 514 953 37.000  Level FlightAware ADS-B
Sun 15:35:01 40.9816 -114.7490 67° East 514 953 37.000  Level FlightAware ADS-B
Sun 15:35:31 41.0093 -114.6630 67° East 513 950 37.000  Level FlightAware ADS-B
Sun 15:36:04 41.0405 -114.5650 67° East 512 948 37.000  Level FlightAware ADS-B
Sun 15:36:36 41.0694 -114.4740 67° East 512 948 37.000  Level FlightAware ADS-B
Sun 15:37:07 41.0978 -114.3840 67° East 510 945 37.000  Level FlightAware ADS-B
Sun 15:37:54 41.1404 -114.2500 67° East 510 945 37.000  Level FlightAware ADS-B
Sun 15:38:24 41.1682 -114.1620 67° East 511 946 37.000  Level FlightAware ADS-B
Sun 15:38:55 41.1953 -114.0750 67° East 508 941 37.000  Level FlightAware ADS-B
Sun 15:39:25 41.2224 -113.9880 67° East 509 943 37.000  Level FlightAware ADS-B
Sun 15:39:56 41.2500 -113.8990 68° East 510 945 37.000  Level FlightAware ADS-B
Sun 15:40:26 41.2773 -113.8100 68° East 510 945 37.000  Level FlightAware ADS-B
Sun 15:40:56 41.3041 -113.7240 67° East 509 943 37.000  Level FlightAware ADS-B
Sun 15:41:27 41.3312 -113.6360 68° East 509 943 37.000  Level FlightAware ADS-B
Sun 15:41:57 41.3581 -113.5480 68° East 510 945 37.000  Level FlightAware ADS-B
Sun 15:42:32 41.3889 -113.4470 68° East 510 945 37.000  Level FlightAware ADS-B
Sun 15:43:02 41.4162 -113.3580 68° East 510 945 37.000  Level FlightAware ADS-B
Sun 15:43:33 41.4435 -113.2680 68° East 511 946 37.000  Level FlightAware ADS-B
Sun 15:44:04 41.4702 -113.1800 68° East 511 946 37.000  Level FlightAware ADS-B
Sun 15:44:34 41.4967 -113.0920 68° East 512 948 37.000  Level FlightAware ADS-B
Sun 15:45:23 41.5399 -112.9480 68° East 511 946 37.000  Level FlightAware ADS-B
Sun 15:45:59 41.5718 -112.8410 68° East 513 950 37.000  Level FlightAware ADS-B
Sun 15:46:32 41.5999 -112.7470 68° East 514 953 37.000  Level FlightAware ADS-B
Sun 15:47:06 41.6302 -112.6450 68° East 513 950 37.000  Level FlightAware ADS-B
Sun 15:47:39 41.6582 -112.5500 68° East 514 953 37.000  Level FlightAware ADS-B
Sun 15:48:14 41.6889 -112.4460 68° East 514 953 37.000  Level FlightAware ADS-B
Sun 15:48:47 41.7173 -112.3490 69° East 513 950 37.000  Level FlightAware ADS-B
Sun 15:49:18 41.7440 -112.2580 69° East 514 953 37.000  Level FlightAware ADS-B
Sun 15:49:55 41.7762 -112.1470 69° East 513 950 37.000  Level FlightAware ADS-B
Sun 15:50:30 41.8058 -112.0450 69° East 513 950 37.000  Level FlightAware ADS-B
Sun 15:51:11 41.8409 -111.9230 69° East 511 946 37.000  Level FlightAware ADS-B
Sun 15:51:45 41.8696 -111.8230 69° East 512 948 37.000  Level FlightAware ADS-B
Sun 15:52:25 41.9033 -111.7050 69° East 511 946 37.000  Level FlightAware ADS-B
Sun 15:53:14 41.9453 -111.5580 69° East 513 950 37.000  Level FlightAware ADS-B
Sun 15:53:48 41.9733 -111.4590 69° East 513 950 37.000  Level FlightAware ADS-B
Sun 15:54:20 42.0002 -111.3640 69° East 509 943 37.000  Level FlightAware ADS-B
Sun 15:55:08 42.0401 -111.2220 69° East 508 941 37.000  Level FlightAware ADS-B
Sun 15:55:39 42.0654 -111.1310 69° East 508 941 37.000  Level FlightAware ADS-B
Sun 15:56:30 42.1000 -111.0080 69° East 508 941 37.000  Level FlightAware ADS-B
Sun 15:57:39 42.1586 -110.7922 69° East 506 937 37.000  Level Salt Lake Center
Sun 15:58:41 42.2056 -110.6236 69° East 503 932 37.000  Level Salt Lake Center
Sun 15:59:43 42.2594 -110.4250 70° East 502 930 37.000  Level Salt Lake Center
Sun 16:00:45 42.3061 -110.2542 70° East 505 935 37.000  Level Salt Lake Center
Sun 16:01:47 42.3589 -110.0572 70° East 501 929 37.000  Level Salt Lake Center
Sun 16:02:49 42.4044 -109.8881 70° East 499 924 37.000  Level Salt Lake Center
Sun 16:03:51 42.4486 -109.7181 71° East 500 925 37.000  Level Salt Lake Center
Sun 16:04:53 42.5019 -109.5189 70° East 502 930 37.000  Level Salt Lake Center
Sun 16:05:55 42.5469 -109.3456 71° East 506 937 37.000  Level Salt Lake Center
Sun 16:06:57 42.5986 -109.1447 71° East 505 935 37.000  Level Salt Lake Center
Sun 16:07:59 42.6431 -108.9725 71° East 505 935 37.000  Level Salt Lake Center
Sun 16:09:01 42.6936 -108.7717 71° East 503 932 37.000  Level Salt Lake Center
Sun 16:10:03 42.7375 -108.6006 71° East 501 929 37.000  Level Salt Lake Center
Sun 16:11:05 42.7872 -108.4008 71° East 499 924 37.000  Level Salt Lake Center
Sun 16:12:07 42.8286 -108.2286 72° East 500 925 37.000  Level Salt Lake Center
Sun 16:13:10 42.8778 -108.0300 71° East 499 924 37.000  Level Salt Lake Center
Sun 16:14:11 42.9197 -107.8603 71° East 495 917 37.000  Level Salt Lake Center
Sun 16:15:13 42.9647 -107.6708 72° East 499 924 37.000  Level Salt Lake Center
Sun 16:16:15 43.0078 -107.4925 72° East 499 924 37.000  Level Salt Lake Center
Sun 16:17:18 43.0494 -107.3133 72° East 497 921 37.000  Level Salt Lake Center
Sun 16:18:20 43.0925 -107.1331 72° East 500 925 37.000  Level Salt Lake Center
Sun 16:19:22 43.1436 -106.9247 71° East 497 921 37.000  Level Salt Lake Center
Sun 16:20:32 43.1903 -106.7222 72° East 497 921 37.000  Level Denver Center
Sun 16:21:35 43.2358 -106.5219 73° East 494 914 37.000  Level Denver Center
Sun 16:22:37 43.2750 -106.3492 73° East 495 917 37.000  Level Denver Center
Sun 16:23:39 43.3219 -106.1481 72° East 494 914 37.000  Level Denver Center
Sun 16:24:53 43.3606 -105.9736 73° East 496 919 37.000  Level Denver Center
Sun 16:25:55 43.4117 -105.7411 73° East 497 921 37.000  Level Denver Center
Sun 16:26:57 43.4506 -105.5653 73° East 500 925 37.000  Level Denver Center
Sun 16:27:59 43.4958 -105.3611 73° East 500 925 37.000  Level Denver Center
Sun 16:29:01 43.5328 -105.1875 74° East 496 919 37.000  Level Denver Center
Sun 16:30:03 43.5764 -104.9842 73° East 495 917 37.000  Level Denver Center
Sun 16:31:05 43.6133 -104.8094 60° Northeast 493 912 37.000  Level Denver Center
Sun 16:32:08 43.6500 -104.6347 74° East 494 914 37.000  Level Denver Center
Sun 16:33:10 43.6928 -104.4306 74° East 494 914 37.000  Level Denver Center
Sun 16:34:12 43.7289 -104.2550 74° East 495 917 37.000  Level Denver Center
Sun 16:35:14 43.7706 -104.0519 74° East 492 911 37.000  Level Denver Center
Sun 16:36:16 43.8050 -103.8800 74° East 485 898 37.000  Level Denver Center
Sun 16:37:18 43.8467 -103.6772 74° East 488 904 37.000  Level Denver Center
Sun 16:38:20 43.8806 -103.5019 75° East 492 911 37.000  Level Denver Center
Sun 16:39:22 43.9222 -103.3022 74° East 485 898 37.000  Level Denver Center
Sun 16:40:24 43.9564 -103.1283 75° East 486 900 37.000  Level Denver Center
Sun 16:41:26 43.9944 -102.9258 75° East 486 900 37.000  Level Denver Center
Sun 16:42:28 44.0142 -102.7567 81° East 485 898 37.000  Level Denver Center
Sun 16:43:30 44.0397 -102.5722 79° East 486 900 37.000  Level Denver Center
Sun 16:44:32 44.0656 -102.3917 79° East 482 893 37.000  Level Denver Center
Sun 16:45:34 44.0942 -102.1736 80° East 479 887 37.000  Level Denver Center
Sun 16:46:36 44.1172 -101.9914 80° East 479 887 37.000  Level Denver Center
Sun 16:47:39 44.1400 -101.8094 80° East 478 885 37.000  Level Denver Center
Sun 16:48:41 44.1639 -101.6294 79° East 476 882 37.000  Level Denver Center
Sun 16:49:43 44.1881 -101.4489 79° East 475 880 37.000  Level Denver Center
Sun 16:50:30 44.2092 -101.3067 78° East 476 882 37.000  Level Minneapolis Center
Sun 16:51:32 44.2333 -101.1250 79° East 477 884 37.000  Level Minneapolis Center
Sun 16:52:34 44.2608 -100.9053 80° East 479 887 37.000  Level Minneapolis Center
Sun 16:53:36 44.2858 -100.7228 79° East 481 892 37.000  Level Minneapolis Center
Sun 16:54:38 44.3078 -100.5381 81° East 483 895 37.000  Level Minneapolis Center
Sun 16:55:40 44.3297 -100.3550 80° East 482 893 37.000  Level Minneapolis Center
Sun 16:56:42 44.3533 -100.1717 80° East 483 895 37.000  Level Minneapolis Center
Sun 16:57:44 44.3792 -99.9522 81° East 481 892 37.000  Level Minneapolis Center
Sun 16:58:46 44.4006 -99.7697 81° East 480 888 37.000  Level Minneapolis Center
Sun 16:59:48 44.4217 -99.5867 81° East 481 892 37.000  Level Minneapolis Center
Sun 17:00:52 44.4442 -99.4033 80° East 481 892 37.000  Level Minneapolis Center
Sun 17:06:52 44.5660 -98.2670 80° East 478 885 37.000  Level FlightAware ADS-B
Sun 17:07:31 44.5780 -98.1520 82° East 477 884 37.000  Level FlightAware ADS-B
Sun 17:08:25 44.5940 -97.9970 82° East 477 884 37.000  Level FlightAware ADS-B
Sun 17:09:13 44.6080 -97.8720 81° East 477 884 37.000  Level FlightAware ADS-B
Sun 17:09:47 44.6180 -97.7840 81° East 477 884 37.000  Level FlightAware ADS-B
Sun 17:10:35 44.6320 -97.6590 81° East 477 884 37.000  Level FlightAware ADS-B
Sun 17:10:59 44.6390 -97.5960 81° East 477 884 37.000  Level FlightAware ADS-B
Sun 17:12:03 44.7450 -97.3760 56° Northeast 475 880 37.000  Level FlightAware ADS-B
Sun 17:12:45 44.7800 -97.2310 71° East 477 884 37.000  Level FlightAware ADS-B
Sun 17:13:25 44.8070 -97.1180 71° East 478 885 37.000  Level FlightAware ADS-B
Sun 17:14:10 44.8400 -96.9800 71° East 479 887 37.000  Level FlightAware ADS-B
Sun 17:14:51 44.8690 -96.8610 71° East 479 887 37.000  Level FlightAware ADS-B
Sun 17:15:35 44.9000 -96.7330 71° East 479 887 37.000  Level FlightAware ADS-B
Sun 17:16:16 44.9290 -96.6090 72° East 479 887 37.000  Level FlightAware ADS-B
Sun 17:16:57 44.9570 -96.4870 72° East 479 887 37.000  Level FlightAware ADS-B
Sun 17:17:39 44.9870 -96.3610 71° East 479 887 37.000  Level FlightAware ADS-B
Sun 17:18:23 45.0170 -96.2320 72° East 479 887 37.000  Level FlightAware ADS-B
Sun 17:19:03 45.0440 -96.1140 72° East 479 887 37.000  Level FlightAware ADS-B
Sun 17:19:39 45.0690 -96.0060 72° East 479 887 37.000  Level FlightAware ADS-B
Sun 17:20:19 45.0960 -95.8870 72° East 480 888 37.000  Level FlightAware ADS-B
Sun 17:21:01 45.1250 -95.7630 72° East 481 892 37.000  Level FlightAware ADS-B
Sun 17:21:43 45.1530 -95.6360 73° East 481 892 37.000  Level FlightAware ADS-B
Sun 17:22:23 45.1750 -95.5380 72° East 481 892 37.000  Level FlightAware ADS-B
Sun 17:23:23 45.2150 -95.3610 72° East 481 892 37.000  Level FlightAware ADS-B
Sun 17:24:06 45.2490 -95.2070 73° East 481 892 37.000  Level FlightAware ADS-B
Sun 17:24:47 45.2760 -95.0840 73° East 480 888 37.000  Level FlightAware ADS-B
Sun 17:25:31 45.3050 -94.9520 73° East 480 888 37.000  Level FlightAware ADS-B
Sun 17:26:00 45.3200 -94.8830 73° East 480 888 37.000  Level FlightAware ADS-B
Sun 17:26:38 45.3490 -94.7490 73° East 481 892 37.000  Level FlightAware ADS-B
Sun 17:27:24 45.3780 -94.6140 73° East 482 893 37.000  Level FlightAware ADS-B
Sun 17:28:04 45.4050 -94.4900 73° East 482 893 37.000  Level FlightAware ADS-B
Sun 17:28:37 45.4260 -94.3920 73° East 483 895 37.000  Level FlightAware ADS-B
Sun 17:29:21 45.4550 -94.2540 73° East 485 898 37.000  Level FlightAware ADS-B
Sun 17:30:02 45.4810 -94.1310 73° East 485 898 37.000  Level FlightAware ADS-B
Sun 17:30:39 45.5040 -94.0200 73° East 485 898 37.000  Level FlightAware ADS-B
Sun 17:31:19 45.5190 -93.8910 81° East 497 921 37.000  Level FlightAware ADS-B
Sun 17:32:01 45.5150 -93.7510 92° East 505 935 37.000  Level FlightAware ADS-B
Sun 17:32:39 45.5080 -93.6280 95° East 505 935 37.000  Level FlightAware ADS-B
Sun 17:33:19 45.5000 -93.4940 95° East 505 935 37.000  Level FlightAware ADS-B
Sun 17:34:01 45.4910 -93.3540 95° East 504 933 37.000  Level FlightAware ADS-B
Sun 17:34:45 45.4810 -93.2110 96° East 502 930 37.000  Level FlightAware ADS-B
Sun 17:35:27 45.4720 -93.0720 95° East 499 924 37.000  Level FlightAware ADS-B
Sun 17:36:09 45.4630 -92.9350 95° East 497 921 37.000  Level FlightAware ADS-B
Sun 17:36:49 45.4540 -92.8060 96° East 496 919 37.000  Level FlightAware ADS-B
Sun 17:37:33 45.4440 -92.6630 96° East 496 919 37.000  Level FlightAware ADS-B
Sun 17:38:13 45.4350 -92.5350 96° East 496 919 37.000 293 Level FlightAware ADS-B
Sun 17:38:55 45.4250 -92.3990 96° East 495 917 37.400 878 Climbing FlightAware ADS-B
Sun 17:39:35 45.4150 -92.2700 96° East 493 912 38.200 786 Climbing FlightAware ADS-B
Sun 17:40:19 45.4050 -92.1250 96° East 502 930 38.500 512 Climbing FlightAware ADS-B
Sun 17:40:57 45.3960 -92.0040 96° East 504 933 38.900 357 Climbing FlightAware ADS-B
Sun 17:41:43 45.3850 -91.8490 96° East 509 943 39.000 67 Climbing FlightAware ADS-B
Sun 17:42:27 45.3740 -91.7010 96° East 511 946 39.000  Level FlightAware ADS-B
Sun 17:43:08 45.3630 -91.5660 97° East 512 948 39.000  Level FlightAware ADS-B
Sun 17:43:50 45.3520 -91.4270 96° East 511 946 39.000  Level FlightAware ADS-B
Sun 17:44:23 45.3440 -91.3150 96° East 510 945 39.000  Level FlightAware ADS-B
Sun 17:45:06 45.3320 -91.1740 97° East 510 945 39.000  Level FlightAware ADS-B
Sun 17:45:49 45.3210 -91.0300 96° East 510 945 39.000  Level FlightAware ADS-B
Sun 17:46:23 45.3110 -90.9190 97° East 510 945 39.000  Level FlightAware ADS-B
Sun 17:47:04 45.3000 -90.7820 96° East 509 943 39.000  Level FlightAware ADS-B
Sun 17:47:49 45.2870 -90.6330 97° East 509 943 39.000  Level FlightAware ADS-B
Sun 17:48:30 45.2760 -90.4980 97° East 510 945 39.000  Level FlightAware ADS-B
Sun 17:49:08 45.2650 -90.3760 97° East 510 945 39.000  Level FlightAware ADS-B
Sun 17:49:51 45.2520 -90.2270 97° East 512 948 39.000  Level FlightAware ADS-B
Sun 17:50:38 45.2380 -90.0700 97° East 513 950 39.000  Level FlightAware ADS-B
Sun 17:51:12 45.2280 -89.9570 97° East 514 953 39.000  Level FlightAware ADS-B
Sun 17:51:52 45.2160 -89.8280 97° East 513 950 39.000  Level FlightAware ADS-B
Sun 17:52:36 45.2020 -89.6790 98° East 512 948 39.000  Level FlightAware ADS-B
Sun 17:53:12 45.1910 -89.5630 98° East 513 950 39.000  Level FlightAware ADS-B
Sun 17:54:07 45.1740 -89.3860 98° East 513 950 39.000  Level FlightAware ADS-B
Sun 17:54:42 45.1620 -89.2620 98° East 512 948 39.000  Level FlightAware ADS-B
Sun 17:55:39 45.1430 -89.0740 98° East 513 950 39.000  Level FlightAware ADS-B
Sun 17:56:19 45.1300 -88.9400 98° East 513 950 39.000  Level FlightAware ADS-B
Sun 17:57:00 45.1170 -88.8110 98° East 512 948 39.000  Level FlightAware ADS-B
Sun 17:57:43 45.1010 -88.6640 99° East 512 948 39.000  Level FlightAware ADS-B
Sun 17:58:24 45.0870 -88.5270 98° East 512 948 39.000  Level FlightAware ADS-B
Sun 17:59:05 45.0730 -88.3890 98° East 512 948 39.000  Level FlightAware ADS-B
Sun 17:59:48 45.0580 -88.2480 99° East 513 950 39.000  Level FlightAware ADS-B
Sun 18:00:20 45.0470 -88.1440 98° East 514 953 39.000  Level FlightAware ADS-B
Sun 18:01:05 45.0310 -87.9970 99° East 516 956 39.000  Level FlightAware ADS-B
Sun 18:01:42 45.0170 -87.8720 99° East 517 958 39.000  Level FlightAware ADS-B
Sun 18:02:23 45.0020 -87.7360 99° East 518 959 39.000  Level FlightAware ADS-B
Sun 18:03:01 44.9870 -87.6040 99° East 519 961 39.000  Level FlightAware ADS-B
Sun 18:03:46 44.9700 -87.4540 99° East 520 962 39.000  Level FlightAware ADS-B
Sun 18:04:51 44.9450 -87.2410 99° East 525 972 39.000  Level FlightAware ADS-B
Sun 18:05:15 44.9360 -87.1590 99° East 527 975 39.000  Level FlightAware ADS-B
Sun 18:06:30 44.9100 -86.9360 99° East 528 978 39.000  Level FlightAware ADS-B
Sun 18:07:26 44.8850 -86.7280 100° East 532 985 39.000  Level FlightAware ADS-B
Sun 18:08:03 44.8730 -86.6200 99° East 532 985 39.000  Level FlightAware ADS-B
Sun 18:09:01 44.8420 -86.3860 101° East 534 990 39.000  Level FlightAware ADS-B
Sun 18:09:37 44.8270 -86.2620 100° East 533 987 39.000  Level FlightAware ADS-B
Sun 18:10:34 44.8030 -86.0690 100° East 531 983 39.000  Level FlightAware ADS-B
Sun 18:12:07 44.7700 -85.8130 100° East 524 970 39.000  Level FlightAware ADS-B
Sun 18:12:49 44.7440 -85.6180 101° East 517 958 39.000  Level FlightAware ADS-B
Sun 18:13:29 44.7270 -85.4850 100° East 513 950 39.000  Level FlightAware ADS-B
Sun 18:14:08 44.7100 -85.3580 101° East 509 943 39.000  Level FlightAware ADS-B
Sun 18:14:55 44.6890 -85.2030 101° East 507 938 39.000  Level FlightAware ADS-B
Sun 18:15:36 44.6710 -85.0750 101° East 507 938 39.000  Level FlightAware ADS-B
Sun 18:16:12 44.6560 -84.9610 100° East 509 943 39.000  Level FlightAware ADS-B
Sun 18:16:51 44.6380 -84.8330 101° East 513 950 39.000  Level FlightAware ADS-B
Sun 18:17:35 44.6180 -84.6870 101° East 517 958 39.000  Level FlightAware ADS-B
Sun 18:18:12 44.6020 -84.5720 101° East 519 961 39.000  Level FlightAware ADS-B
Sun 18:18:51 44.5820 -84.4330 101° East 523 969 39.000  Level FlightAware ADS-B
Sun 18:19:31 44.5630 -84.3000 101° East 526 974 39.000  Level FlightAware ADS-B
Sun 18:19:55 44.5510 -84.2210 102° East 527 975 39.000  Level FlightAware ADS-B
Sun 18:21:13 44.5220 -84.0190 101° East 530 982 39.000  Level FlightAware ADS-B
Sun 18:21:55 44.4920 -83.8180 102° East 533 987 39.000  Level FlightAware ADS-B
Sun 18:22:35 44.4730 -83.6870 101° East 534 990 39.000  Level FlightAware ADS-B
Sun 18:23:35 44.4420 -83.4850 102° East 534 990 39.000  Level FlightAware ADS-B
Sun 18:24:15 44.4220 -83.3520 102° East 534 990 39.000  Level FlightAware ADS-B
Sun 18:25:02 44.3970 -83.1900 102° East 533 987 39.000  Level FlightAware ADS-B
Sun 18:25:37 44.3780 -83.0690 102° East 532 985 39.000  Level FlightAware ADS-B
Sun 18:26:17 44.3580 -82.9370 102° East 531 983 39.000  Level FlightAware ADS-B
Sun 18:27:03 44.3340 -82.7830 102° East 530 982 39.000  Level FlightAware ADS-B
Sun 18:27:42 44.3140 -82.6570 102° East 530 982 39.000  Level FlightAware ADS-B
Sun 18:28:22 44.2960 -82.5480 103° East 529 980 39.000  Level FlightAware ADS-B
Sun 18:29:08 44.2700 -82.3840 102° East 528 978 39.000  Level FlightAware ADS-B
Sun 18:29:51 44.2460 -82.2460 104° East 527 975 39.000  Level FlightAware ADS-B
Sun 18:30:22 44.2270 -82.1530 106° East 526 974 39.000  Level FlightAware ADS-B
Sun 18:31:06 44.1950 -82.0010 106° East 526 974 39.000  Level FlightAware ADS-B
Sun 18:31:42 44.1710 -81.8900 107° East 527 975 39.000  Level FlightAware ADS-B
Sun 18:32:20 44.1440 -81.7670 107° East 527 975 39.000  Level FlightAware ADS-B
Sun 18:33:01 44.1180 -81.6460 107° East 526 974 39.000  Level FlightAware ADS-B
Sun 18:33:48 44.0820 -81.4820 107° East 525 972 39.000  Level FlightAware ADS-B
Sun 18:34:34 44.0480 -81.3280 107° East 526 974 39.000  Level FlightAware ADS-B
Sun 18:35:20 44.0150 -81.1780 107° East 524 970 39.000  Level FlightAware ADS-B
Sun 18:35:56 43.9910 -81.0720 107° East 524 970 39.000  Level FlightAware ADS-B
Sun 18:36:38 43.9600 -80.9320 107° East 524 970 39.000  Level FlightAware ADS-B
Sun 18:37:22 43.9240 -80.7740 108° East 525 972 39.000  Level FlightAware ADS-B
Sun 18:38:09 43.8900 -80.6230 107° East 524 970 39.000  Level FlightAware ADS-B
Sun 18:38:42 43.8660 -80.5200 108° East 523 969 39.000  Level FlightAware ADS-B
Sun 18:39:23 43.8370 -80.3950 108° East 524 970 39.000  Level FlightAware ADS-B
Sun 18:40:26 43.7960 -80.2160 108° East 524 970 39.000  Level FlightAware ADS-B
Sun 18:41:27 43.7450 -79.9970 108° East 523 969 39.000  Level FlightAware ADS-B
Sun 18:42:07 43.7140 -79.8670 108° East 522 967 39.000  Level FlightAware ADS-B
Sun 18:42:47 43.6840 -79.7390 108° East 524 970 39.000  Level FlightAware ADS-B
Sun 18:43:27 43.6630 -79.6070 102° East 535 991 39.000  Level FlightAware ADS-B
Sun 18:44:02 43.6630 -79.4880 90° East 541 1003 39.000  Level FlightAware ADS-B
Sun 18:44:47 43.6690 -79.3320 87° East 541 1003 39.000  Level FlightAware ADS-B
Sun 18:45:22 43.6730 -79.2140 87° East 541 1003 39.000  Level FlightAware ADS-B
Sun 18:46:07 43.6790 -79.0570 87° East 542 1004 39.000  Level FlightAware ADS-B
Sun 18:46:47 43.6830 -78.9190 88° East 542 1004 39.000  Level FlightAware ADS-B
Sun 18:47:32 43.6880 -78.7710 87° East 544 1007 39.000  Level FlightAware ADS-B
Sun 18:48:07 43.6920 -78.6440 87° East 544 1007 39.000  Level FlightAware ADS-B
Sun 18:48:56 43.6970 -78.4680 88° East 544 1007 39.000  Level FlightAware ADS-B
Sun 18:49:36 43.7000 -78.3300 88° East 545 1009 39.000  Level FlightAware ADS-B
Sun 18:50:12 43.7030 -78.2050 88° East 546 1011 39.000  Level FlightAware ADS-B
Sun 18:50:52 43.7070 -78.0650 88° East 547 1012 39.000  Level FlightAware ADS-B
Sun 18:51:32 43.7100 -77.9290 88° East 547 1012 39.000  Level FlightAware ADS-B
Sun 18:52:14 43.7140 -77.7820 88° East 548 1015 39.000  Level FlightAware ADS-B
Sun 18:52:50 43.7160 -77.6590 89° East 549 1017 39.000  Level FlightAware ADS-B
Sun 18:53:33 43.7190 -77.5050 88° East 550 1019 39.000  Level FlightAware ADS-B
Sun 18:54:13 43.7220 -77.3660 88° East 550 1019 39.000  Level FlightAware ADS-B
Sun 18:54:59 43.7250 -77.2020 88° East 552 1022 39.000  Level FlightAware ADS-B
Sun 18:55:39 43.7270 -77.0620 89° East 552 1022 39.000  Level FlightAware ADS-B
Sun 18:56:19 43.7290 -76.9200 89° East 553 1024 39.000  Level FlightAware ADS-B
Sun 18:57:03 43.7300 -76.8290 89° East 544 1007 39.000  Level FlightAware ADS-B
Sun 18:57:23 43.7070 -76.7110 105° East 530 982 39.000  Level FlightAware ADS-B
Sun 18:58:08 43.6430 -76.6010 129° Southeast 496 919 39.000  Level FlightAware ADS-B
Sun 18:58:49 43.5700 -76.5050 136° Southeast 494 914 39.000  Level FlightAware ADS-B
Sun 18:59:23 43.5140 -76.4310 136° Southeast 494 914 39.000  Level FlightAware ADS-B
Sun 19:00:03 43.4480 -76.3440 136° Southeast 495 917 39.000  Level FlightAware ADS-B
Sun 19:00:47 43.3750 -76.2480 136° Southeast 495 917 39.000  Level FlightAware ADS-B
Sun 19:01:31 43.3030 -76.1550 137° Southeast 495 917 39.000  Level FlightAware ADS-B
Sun 19:02:11 43.2370 -76.0680 136° Southeast 493 912 39.000  Level FlightAware ADS-B
Sun 19:02:51 43.1690 -75.9800 137° Southeast 493 912 39.000  Level FlightAware ADS-B
Sun 19:03:35 43.0970 -75.8860 136° Southeast 492 911 39.000  Level FlightAware ADS-B
Sun 19:04:15 43.0310 -75.8010 137° Southeast 491 909 39.000  Level FlightAware ADS-B
Sun 19:04:51 42.9730 -75.7260 137° Southeast 492 911 39.000  Level FlightAware ADS-B
Sun 19:05:33 42.9030 -75.6370 137° Southeast 490 908 39.000  Level FlightAware ADS-B
Sun 19:06:13 42.8370 -75.5520 137° Southeast 490 908 39.000  Level FlightAware ADS-B
Sun 19:06:53 42.7710 -75.4680 137° Southeast 488 904 39.000  Level FlightAware ADS-B
Sun 19:07:33 42.7040 -75.3830 137° Southeast 486 900 39.000 -805 Level FlightAware ADS-B
Sun 19:08:15 42.6370 -75.2970 137° Southeast 477 884 37.900 -2.302 Descending FlightAware ADS-B
Sun 19:08:59 42.5660 -75.2070 137° Southeast 486 900 35.700 -3.000 Descending FlightAware ADS-B
Sun 19:09:39 42.5010 -75.1260 137° Southeast 495 917 33.700 -2.875 Descending FlightAware ADS-B
Sun 19:10:35 42.4030 -75.0040 137° Southeast 514 953 31.100 -1.322 Descending FlightAware ADS-B
Sun 19:12:36 42.1894 -74.7362 137° Southeast 514 953 29.800 -1.000 Descending FlightAware ADS-B
Sun 19:13:17 42.1195 -74.6497 137° Southeast 502 930 28.400 -1.317 Descending FlightAware ADS-B
Sun 19:13:58 42.0491 -74.5628 137° Southeast 502 930 28.000 -312 Descending FlightAware ADS-B
Sun 19:14:34 41.9883 -74.4841 136° Southeast 508 941 28.000  Level FlightAware ADS-B
Sun 19:14:58 41.9535 -74.4255 129° Southeast 516 956 28.000  Level FlightAware ADS-B
Sun 19:15:19 41.9242 -74.3716 126° Southeast 514 953 28.000  Level FlightAware ADS-B
Sun 19:15:53 41.8654 -74.2992 137° Southeast 514 953 28.000  Level FlightAware ADS-B
Sun 19:15:58 41.8559 -74.2906 146° Southeast 503 932 28.000  Level FlightAware ADS-B
Sun 19:16:18 41.8147 -74.2606 152° Southeast 496 919 28.000 -706 Level FlightAware ADS-B
Sun 19:16:49 41.7487 -74.2283 160° South 484 896 27.400 -2.026 Descending FlightAware ADS-B
Sun 19:17:35 41.6520 -74.1850 161° South 476 882 25.400 -2.571 Descending FlightAware ADS-B
Sun 19:17:45 41.6312 -74.1753 161° South 479 887 25.000 -2.550 Descending FlightAware ADS-B
Sun 19:18:15 41.5686 -74.1470 161° South 471 872 23.700 -2.571 Descending FlightAware ADS-B
Sun 19:18:48 41.5013 -74.1163 161° South 464 859 22.300 -2.531 Descending FlightAware ADS-B
Sun 19:19:19 41.4388 -74.0886 162° South 451 835 21.000 -2.432 Descending FlightAware ADS-B
Sun 19:19:25 41.4279 -74.0855 168° South 447 827 20.800 -2.250 Descending FlightAware ADS-B
Sun 19:19:35 41.4068 -74.0828 175° South 438 811 20.400 -2.308 Descending FlightAware ADS-B
Sun 19:19:38 41.4007 -74.0828 180° South 436 808 20.300 -1.000 Descending FlightAware ADS-B
Sun 19:19:53 41.3712 -74.0879 187° South 430 797 20.100 -818 Descending FlightAware ADS-B
Sun 19:20:00 41.3586 -74.0930 197° South 425 787 20.000 -353 Descending FlightAware ADS-B
Sun 19:20:10 41.3410 -74.1033 204° Southwest 417 772 20.000  Level FlightAware ADS-B
Sun 19:20:28 41.3104 -74.1271 210° Southwest 415 769 20.000  Level FlightAware ADS-B
Sun 19:21:00 41.2590 -74.1699 212° Southwest 409 758 20.000  Level FlightAware ADS-B
Sun 19:21:24 41.2205 -74.2030 213° Southwest 406 752 20.000  Level FlightAware ADS-B
Sun 19:21:31 41.2098 -74.2121 213° Southwest 406 752 20.000  Level FlightAware ADS-B
Sun 19:21:42 41.1914 -74.2247 207° Southwest 410 760 20.000  Level FlightAware ADS-B
Sun 19:21:44 41.1872 -74.2271 203° Southwest 410 760 20.000  Level FlightAware ADS-B
Sun 19:21:55 41.1680 -74.2356 198° South 411 761 20.000  Level FlightAware ADS-B
Sun 19:21:58 41.1626 -74.2373 193° South 410 760 20.000 -429 Level FlightAware ADS-B
Sun 19:22:09 41.1422 -74.2412 188° South 409 758 19.900 -783 Descending FlightAware ADS-B
Sun 19:22:21 41.1195 -74.2410 180° South 409 758 19.700 -900 Descending FlightAware ADS-B
Sun 19:22:29 41.1038 -74.2379 172° South 412 763 19.600 -706 Descending FlightAware ADS-B
Sun 19:22:38 41.0885 -74.2323 165° South 414 766 19.500 -387 Descending FlightAware ADS-B
Sun 19:23:00 41.0487 -74.2109 158° South 416 771 19.400 -200 Descending FlightAware ADS-B
Sun 19:23:08 41.0342 -74.2028 157° South 415 769 19.400 -194 Level FlightAware ADS-B
Sun 19:23:31 40.9931 -74.1794 157° South 414 766 19.300 -182 Descending FlightAware ADS-B
Sun 19:23:41 40.9761 -74.1696 156° South 414 766 19.300 -462 Level FlightAware ADS-B
Sun 19:23:57 40.9492 -74.1539 156° South 409 758 19.100 -643 Descending FlightAware ADS-B
Sun 19:24:09 40.9301 -74.1389 149° Southeast 404 748 19.000 -333 Descending FlightAware ADS-B
Sun 19:24:15 40.9211 -74.1299 143° Southeast 399 739 19.000  Level FlightAware ADS-B
Sun 19:24:22 40.9111 -74.1180 138° Southeast 391 724 19.000  Level FlightAware ADS-B
Sun 19:24:24 40.9092 -74.1155 135° Southeast 390 723 19.000  Level FlightAware ADS-B
Sun 19:24:27 40.9051 -74.1096 133° Southeast 386 715 19.000  Level FlightAware ADS-B
Sun 19:24:39 40.8909 -74.0881 131° Southeast 370 686 19.000  Level FlightAware ADS-B
Sun 19:24:42 40.8879 -74.0841 135° Southeast 367 679 19.000  Level FlightAware ADS-B
Sun 19:24:47 40.8815 -74.0761 137° Southeast 358 663 19.000  Level FlightAware ADS-B
Sun 19:24:50 40.8783 -74.0728 142° Southeast 355 658 19.000  Level FlightAware ADS-B
Sun 19:24:52 40.8757 -74.0702 143° Southeast 352 652 19.000  Level FlightAware ADS-B
Sun 19:24:57 40.8680 -74.0637 147° Southeast 346 641 19.000  Level FlightAware ADS-B
Sun 19:24:59 40.8650 -74.0616 152° Southeast 343 636 19.000 -750 Level FlightAware ADS-B
Sun 19:25:05 40.8566 -74.0566 156° South 339 628 18.900 -1.091 Descending FlightAware ADS-B
Sun 19:25:10 40.8504 -74.0535 159° South 337 624 18.800 -1.886 Descending FlightAware ADS-B
Sun 19:25:40 40.8044 -74.0346 163° South 339 628 17.800 -1.645 Descending FlightAware ADS-B
Sun 19:26:12 40.7568 -74.0157 163° South 332 615 17.100 -1.317 Descending FlightAware ADS-B
Sun 19:26:21 40.7440 -74.0107 164° South 331 613 16.900 -1.313 Descending FlightAware ADS-B
Sun 19:26:44 40.7113 -73.9977 163° South 326 604 16.400 -1.472 Descending FlightAware ADS-B
Sun 19:27:14 40.6683 -73.9804 163° South 322 597 15.600 -1.672 Descending FlightAware ADS-B
Sun 19:27:45 40.6231 -73.9626 163° South 320 592 14.700 -1.726 Descending FlightAware ADS-B
Sun 19:28:27 40.5652 -73.9402 164° South 312 578 13.500 -1.315 Descending FlightAware ADS-B
Sun 19:28:58 40.5233 -73.9243 164° South 299 554 13.100 -984 Descending FlightAware ADS-B
Sun 19:29:28 40.4838 -73.9093 164° South 286 529 12.500 -1.059 Descending FlightAware ADS-B
Sun 19:29:32 40.4784 -73.9080 170° South 283 525 12.500 -1.091 Level FlightAware ADS-B
Sun 19:29:39 40.4693 -73.9070 175° South 277 513 12.300 -947 Descending FlightAware ADS-B
Sun 19:30:10 40.4317 -73.9086 182° South 256 475 11.900 -982 Descending FlightAware ADS-B
Sun 19:30:34 40.4043 -73.9106 183° South 245 454 11.400 -1.527 Descending FlightAware ADS-B
Sun 19:31:05 40.3694 -73.9139 184° South 240 444 10.500 -1.787 Descending FlightAware ADS-B
Sun 19:31:21 40.3519 -73.9158 185° South 240 444 10.000 -1.935 Descending FlightAware ADS-B
Sun 19:31:36 40.3354 -73.9176 185° South 238 441 9.500 -1.636 Descending FlightAware ADS-B
Sun 19:31:54 40.3161 -73.9194 184° South 234 433 9.100 -1.440 Descending FlightAware ADS-B
Sun 19:32:01 40.3080 -73.9195 181° South 234 433 8.900 -1.667 Descending FlightAware ADS-B
Sun 19:32:12 40.2963 -73.9152 164° South 236 438 8.600 -1.667 Descending FlightAware ADS-B
Sun 19:32:19 40.2900 -73.9096 146° Southeast 239 443 8.400 -1.714 Descending FlightAware ADS-B
Sun 19:32:26 40.2849 -73.9022 132° Southeast 242 447 8.200 -1.765 Descending FlightAware ADS-B
Sun 19:32:36 40.2794 -73.8895 120° Southeast 243 451 7.900 -1.615 Descending FlightAware ADS-B
Sun 19:32:52 40.2718 -73.8683 115° Southeast 249 462 7.500 -1.412 Descending FlightAware ADS-B
Sun 19:33:10 40.2630 -73.8430 114° Southeast 251 465 7.100 -1.263 Descending FlightAware ADS-B
Sun 19:33:30 40.2533 -73.8154 115° Southeast 250 463 6.700 -1.029 Descending FlightAware ADS-B
Sun 19:33:45 40.2458 -73.7946 115° Southeast 249 462 6.500 -1.019 Descending FlightAware ADS-B
Sun 19:34:23 40.2310 -73.7440 111° Southeast 246 455 5.800 -1.138 Descending FlightAware ADS-B
Sun 19:34:43 40.2397 -73.7159 68° East 246 455 5.400 -1.000 Descending FlightAware ADS-B
Sun 19:34:59 40.2530 -73.7035 35° Northeast 233 431 5.200 -968 Descending FlightAware ADS-B
Sun 19:35:14 40.2672 -73.6931 29° Northeast 233 431 4.900 -1.355 Descending FlightAware ADS-B
Sun 19:35:30 40.2830 -73.6818 29° Northeast 232 430 4.500 -1.235 Descending FlightAware ADS-B
Sun 19:35:48 40.2994 -73.6700 29° Northeast 232 430 4.200 -714 Descending FlightAware ADS-B
Sun 19:36:12 40.3202 -73.6505 36° Northeast 230 426 4.000 -273 Descending FlightAware ADS-B
Sun 19:36:32 40.3374 -73.6331 38° Northeast 229 425 4.000  Level FlightAware ADS-B
Sun 19:36:58 40.3589 -73.6111 38° Northeast 229 425 4.000  Level FlightAware ADS-B
Sun 19:37:14 40.3726 -73.5973 38° Northeast 227 420 4.000  Level FlightAware ADS-B
Sun 19:37:30 40.3856 -73.5843 37° Northeast 227 420 4.000  Level FlightAware ADS-B
Sun 19:37:49 40.4011 -73.5687 37° Northeast 227 420 4.000  Level FlightAware ADS-B
Sun 19:38:16 40.4242 -73.5457 37° Northeast 228 422 4.000  Level FlightAware ADS-B
Sun 19:38:48 40.4520 -73.5220 33° Northeast 228 422 4.000  Level FlightAware ADS-B
Sun 19:38:57 40.4614 -73.5165 24° Northeast 228 422 4.000  Level FlightAware ADS-B
Sun 19:39:06 40.4700 -73.5125 19° North 229 425 4.000  Level FlightAware ADS-B
Sun 19:39:25 40.4896 -73.5044 17° North 228 422 4.000  Level FlightAware ADS-B
Sun 19:39:41 40.5056 -73.4979 17° North 227 420 4.000  Level FlightAware ADS-B
Sun 19:40:21 40.5440 -73.4820 17° North 228 422 4.000  Level FlightAware ADS-B
Sun 19:40:32 40.5572 -73.4771 16° North 227 420 4.000  Level FlightAware ADS-B
Sun 19:41:14 40.5990 -73.4610 16° North 227 420 4.000  Level FlightAware ADS-B
Sun 19:41:42 40.6270 -73.4500 17° North 227 420 4.000  Level FlightAware ADS-B
Sun 19:42:10 40.6560 -73.4380 17° North 228 422 4.000  Level FlightAware ADS-B
Sun 19:42:26 40.6710 -73.4320 17° North 228 422 4.000  Level FlightAware ADS-B
Sun 19:42:55 40.7000 -73.4210 16° North 229 425 4.000  Level FlightAware ADS-B
Sun 19:43:22 40.7290 -73.4270 351° North 229 425 4.000  Level FlightAware ADS-B
Sun 19:43:50 40.7580 -73.4350 348° North 228 422 4.000 -115 Level FlightAware ADS-B
Sun 19:44:14 40.7810 -73.4430 345° North 209 388 3.900 -391 Descending FlightAware ADS-B
Sun 19:44:36 40.8020 -73.4480 350° North 200 370 3.700 -529 Descending FlightAware ADS-B
Sun 19:44:48 40.8110 -73.4530 337° Northwest 199 369 3.600 -800 Descending FlightAware ADS-B
Sun 19:45:06 40.8210 -73.4710 306° West 198 367 3.300 -1.071 Descending FlightAware ADS-B
Sun 19:45:16 40.8220 -73.4820 277° West 197 365 3.100 -429 Descending FlightAware ADS-B
Sun 19:45:48 40.8160 -73.5220 259° West 204 378 3.000 -125 Descending FlightAware ADS-B
Sun 19:46:04 40.8120 -73.5410 254° West 206 381 3.000 -273 Level FlightAware ADS-B
Sun 19:46:32 40.8060 -73.5750 257° West 202 373 2.800 -692 Descending FlightAware ADS-B
Sun 19:46:56 40.8000 -73.6040 255° West 202 373 2.400 -960 Descending FlightAware ADS-B
Sun 19:47:22 40.7890 -73.6300 241° Southwest 199 369 2.000 -571 Descending FlightAware ADS-B
Sun 19:47:38 40.7780 -73.6460 228° Southwest 186 344 2.000  Level FlightAware ADS-B
Sun 19:48:08 40.7600 -73.6650 219° Southwest 170 315 2.000 -105 Level FlightAware ADS-B
Sun 19:48:35 40.7420 -73.6800 212° Southwest 170 315 1.900 -273 Descending FlightAware ADS-B
Sun 19:48:52 40.7300 -73.6890 210° Southwest 170 315 1.800 -585 Descending FlightAware ADS-B
Sun 19:49:16 40.7140 -73.7010 210° Southwest 162 299 1.500 -750 Descending FlightAware ADS-B
Sun 19:49:48 40.6940 -73.7160 210° Southwest 140 259 1.100 -700 Descending FlightAware ADS-B
Sun 19:50:16 40.6790 -73.7280 211° Southwest 138 256 800 -600 Descending FlightAware ADS-B
Sun 19:50:38 40.6670 -73.7380 212° Southwest 135 249 600 -643 Descending FlightAware ADS-B
Sun 19:51:12 40.6490 -73.7520 211° Southwest 136 253 200 -706 Descending FlightAware ADS-B

Login

Don't have an account? Register now (free) for customized features, flight alerts, and more!